FW8891 Weather Reports


Display with metric or nautical units.
time (UTC)temp
F
wind
direction
speed
MPH
gust
MPH
rain 1hr
in
rain 24hr
in
rain mn
in
humidity
%
barometer
mb
20240530060109 53 0 0.0 0.0 0.00 0.68 0.00 96 1017.7
20240530054603 53 0 0.0 0.0 0.00 0.89 0.00 96 1017.8
20240530053100 53 0 0.0 0.0 0.00 0.89 0.00 96 1017.9
20240530051605 53 0 0.0 0.0 0.00 0.89 0.00 96 1017.8
20240530050110 53 0 0.0 0.0 0.00 0.89 0.00 97 1017.9
20240530044557 53 0 0.0 0.0 0.00 0.89 0.00 97 1018.0
20240530043101 53 0 0.0 0.0 0.00 0.89 0.00 97 1017.8
20240530041600 52 0 0.0 0.0 0.00 0.89 0.00 96 1017.6
20240530040106 53 0 0.0 0.0 0.00 0.89 0.00 96 1017.5
20240530034600 53 0 0.0 0.0 0.00 0.89 0.89 96 1017.5
20240530033059 53 0 0.0 0.0 0.00 0.89 0.89 96 1017.4
20240530031634 53 0 0.0 0.0 0.00 0.89 0.89 96 1017.2
20240530030106 54 0 0.0 0.0 0.00 0.89 0.89 95 1017.1
20240530024600 54 0 0.0 0.0 0.00 0.89 0.89 96 1017.0
20240530023106 54 0 0.0 0.0 0.00 0.89 0.89 96 1016.7
20240530021610 54 0 0.0 0.0 0.00 0.89 0.89 96 1016.6
20240530020101 55 0 0.0 0.0 0.00 0.89 0.89 95 1016.5
20240530014559 55 0 0.0 0.0 0.00 0.89 0.89 95 1016.4
20240530013101 55 0 0.0 0.0 0.00 0.89 0.89 95 1016.2
20240530011558 56 0 0.0 0.0 0.00 0.89 0.89 95 1016.0
20240530010101 56 0 0.0 0.0 0.00 0.89 0.89 95 1016.0
20240530004603 56 0 0.0 0.0 0.00 0.89 0.89 95 1015.9
20240530003104 57 0 0.0 0.0 0.00 0.89 0.89 94 1015.8
20240530001559 57 0 0.0 0.0 0.00 0.89 0.89 93 1015.8
20240530000111 57 0 0.0 2.0 0.00 0.89 0.89 93 1015.9
20240529234600 58 0 0.0 2.0 0.00 0.89 0.89 93 1015.8
20240529233101 58 266 0.0 2.0 0.01 0.89 0.89 94 1015.9
20240529231601 57 0 0.0 3.0 0.02 0.89 0.89 95 1015.8
20240529230100 56 239 0.0 1.0 0.03 0.89 0.89 95 1015.6
20240529224601 56 0 0.0 1.0 0.06 0.89 0.89 95 1015.5
20240529223106 55 0 0.0 0.0 0.09 0.88 0.88 95 1015.2
20240529221610 55 0 0.0 0.0 0.48 0.87 0.87 94 1015.8
20240529220101 55 0 0.0 2.0 0.55 0.86 0.86 92 1016.1
20240529214614 55 359 1.0 5.0 0.52 0.83 0.83 91 1016.0
20240529213104 57 29 2.0 9.0 0.48 0.79 0.79 87 1015.9
20240529211612 65 247 4.0 12.0 0.08 0.39 0.39 76 1015.2
20240529210059 67 324 1.0 5.0 0.00 0.31 0.31 71 1014.9
20240529204602 66 359 1.0 10.0 0.00 0.31 0.31 72 1014.9
20240529203106 67 229 2.0 10.0 0.00 0.31 0.31 71 1014.7
20240529201558 66 224 3.0 9.0 0.00 0.31 0.31 71 1014.8
20240529200058 66 213 3.0 7.0 0.00 0.31 0.31 70 1014.8
20240529194600 66 325 3.0 8.0 0.00 0.31 0.31 72 1014.8
20240529193100 66 10 2.0 13.0 0.00 0.31 0.31 71 1014.8
20240529191559 67 253 3.0 9.0 0.00 0.31 0.31 69 1014.7
20240529190104 67 139 2.0 9.0 0.00 0.31 0.31 68 1014.6
20240529184605 67 239 3.0 10.0 0.00 0.31 0.31 69 1014.4
20240529183103 65 306 3.0 7.0 0.00 0.31 0.31 72 1014.2
20240529181600 63 217 4.0 13.0 0.00 0.31 0.31 74 1014.0
20240529180107 64 235 3.0 8.0 0.00 0.31 0.31 73 1014.2
20240529174609 62 244 3.0 11.0 0.00 0.33 0.31 75 1014.2
20240529173108 63 245 3.0 10.0 0.00 0.33 0.31 72 1014.2
20240529171623 64 225 1.0 9.0 0.00 0.33 0.31 78 1014.2
20240529170058 62 239 3.0 10.0 0.00 0.33 0.31 79 1014.2
20240529164616 64 258 4.0 11.0 0.00 0.33 0.31 75 1014.1
20240529163059 63 236 4.0 11.0 0.04 0.33 0.31 78 1014.0
20240529161559 62 250 3.0 8.0 0.04 0.33 0.31 84 1014.2
20240529160122 61 310 2.0 10.0 0.04 0.33 0.31 85 1014.3
20240529154559 59 254 3.0 8.0 0.04 0.33 0.31 88 1014.3
20240529153116 62 227 1.0 7.0 0.00 0.29 0.27 80 1014.1
20240529151601 61 239 1.0 4.0 0.00 0.29 0.27 82 1014.0
20240529150103 60 233 2.0 6.0 0.00 0.29 0.27 84 1013.7
20240529144606 60 325 0.0 7.0 0.00 0.29 0.27 84 1013.5
20240529143059 59 226 2.0 5.0 0.00 0.29 0.27 85 1013.5
20240529141558 60 240 1.0 6.0 0.00 0.29 0.27 84 1013.6
20240529140102 60 310 3.0 9.0 0.00 0.29 0.27 84 1013.5
20240529134603 61 241 1.0 4.0 0.00 0.29 0.27 84 1013.4
20240529133102 59 229 1.0 4.0 0.00 0.29 0.27 87 1013.4
20240529131559 58 238 1.0 5.0 0.00 0.29 0.27 91 1013.4
20240529130101 57 0 1.0 6.0 0.00 0.29 0.27 92 1013.3
20240529124559 57 234 0.0 3.0 0.00 0.29 0.27 94 1013.3
20240529123106 56 233 0.0 4.0 0.00 0.29 0.27 95 1013.0
20240529121602 56 0 0.0 1.0 0.00 0.29 0.27 96 1012.8
20240529120117 55 0 0.0 4.0 0.00 0.29 0.27 96 1012.4
20240529114600 55 226 2.0 4.0 0.00 0.29 0.27 96 1012.3
20240529113101 55 249 0.0 2.0 0.00 0.29 0.27 98 1012.0
20240529111608 54 303 0.0 0.0 0.00 0.29 0.27 98 1011.6
20240529110119 53 0 0.0 0.0 0.00 0.29 0.27 97 1011.4
20240529104558 52 0 0.0 0.0 0.00 0.29 0.27 97 1011.0
20240529103104 51 0 0.0 0.0 0.00 0.29 0.27 97 1011.0
20240529101558 52 0 0.0 0.0 0.00 0.29 0.27 96 1010.9
20240529100102 52 0 0.0 0.0 0.00 0.29 0.27 96 1010.9
20240529094559 53 0 0.0 0.0 0.00 0.29 0.27 96 1010.9
20240529093102 53 0 0.0 0.0 0.00 0.29 0.27 96 1010.7
20240529091630 54 0 0.0 0.0 0.00 0.29 0.27 96 1010.8
20240529090107 54 0 0.0 0.0 0.00 0.29 0.27 96 1010.8
20240529084559 54 0 0.0 0.0 0.00 0.29 0.27 96 1010.9
20240529083100 54 0 0.0 0.0 0.00 0.29 0.27 96 1011.0
20240529081601 54 0 0.0 0.0 0.00 0.29 0.27 96 1011.0
20240529080059 54 293 0.0 1.0 0.00 0.29 0.27 96 1011.1
20240529074558 54 0 0.0 2.0 0.00 0.29 0.27 95 1011.0
20240529073101 55 0 0.0 1.0 0.00 0.29 0.27 95 1011.0
20240529071603 55 0 0.0 0.0 0.00 0.29 0.27 95 1011.1
20240529070100 54 0 0.0 1.0 0.06 0.29 0.27 95 1011.1
20240529064600 54 0 0.0 0.0 0.09 0.29 0.27 95 1011.2
20240529063058 55 0 0.0 6.0 0.21 0.29 0.27 94 1011.3
20240529061558 55 71 1.0 3.0 0.27 0.29 0.27 94 1010.9